sensor_id;sensor_type;location;lat;lon;timestamp;temperature;humidity
16974;DHT22;8603;46.944;7.412;2023-12-22T00:02:06;7.30;99.90
16974;DHT22;8603;46.944;7.412;2023-12-22T00:04:32;7.30;99.90
16974;DHT22;8603;46.944;7.412;2023-12-22T00:06:58;7.30;99.90
16974;DHT22;8603;46.944;7.412;2023-12-22T00:09:23;7.30;99.90
16974;DHT22;8603;46.944;7.412;2023-12-22T00:11:49;7.20;99.90
16974;DHT22;8603;46.944;7.412;2023-12-22T00:14:14;7.20;99.90
16974;DHT22;8603;46.944;7.412;2023-12-22T00:16:42;7.10;99.90
16974;DHT22;8603;46.944;7.412;2023-12-22T00:19:11;7.10;99.90
16974;DHT22;8603;46.944;7.412;2023-12-22T00:21:37;7.10;99.90
16974;DHT22;8603;46.944;7.412;2023-12-22T00:24:02;7.00;99.90
16974;DHT22;8603;46.944;7.412;2023-12-22T00:26:30;7.10;99.90
16974;DHT22;8603;46.944;7.412;2023-12-22T00:28:56;7.00;99.90
16974;DHT22;8603;46.944;7.412;2023-12-22T00:31:21;7.00;99.90
16974;DHT22;8603;46.944;7.412;2023-12-22T00:33:47;7.00;99.90
16974;DHT22;8603;46.944;7.412;2023-12-22T00:36:13;6.90;99.90
16974;DHT22;8603;46.944;7.412;2023-12-22T00:38:38;7.00;99.90
16974;DHT22;8603;46.944;7.412;2023-12-22T00:41:04;7.00;99.90
16974;DHT22;8603;46.944;7.412;2023-12-22T00:43:29;7.00;99.90
16974;DHT22;8603;46.944;7.412;2023-12-22T00:45:55;7.10;99.90
16974;DHT22;8603;46.944;7.412;2023-12-22T00:48:23;7.10;99.90
16974;DHT22;8603;46.944;7.412;2023-12-22T00:50:48;7.00;99.90
16974;DHT22;8603;46.944;7.412;2023-12-22T00:53:14;7.00;99.90
16974;DHT22;8603;46.944;7.412;2023-12-22T00:55:39;7.00;99.90
16974;DHT22;8603;46.944;7.412;2023-12-22T01:49:52;7.30;99.90
16974;DHT22;8603;46.944;7.412;2023-12-22T01:53:24;7.30;99.90
16974;DHT22;8603;46.944;7.412;2023-12-22T01:56:13;7.30;99.90
16974;DHT22;8603;46.944;7.412;2023-12-22T01:58:39;7.30;99.90
16974;DHT22;8603;46.944;7.412;2023-12-22T02:01:28;7.30;99.90
16974;DHT22;8603;46.944;7.412;2023-12-22T02:04:00;7.30;99.90
16974;DHT22;8603;46.944;7.412;2023-12-22T02:06:35;7.40;99.90
16974;DHT22;8603;46.944;7.412;2023-12-22T02:09:24;7.30;99.90
16974;DHT22;8603;46.944;7.412;2023-12-22T02:12:15;7.40;99.90
16974;DHT22;8603;46.944;7.412;2023-12-22T02:15:01;7.50;99.90
16974;DHT22;8603;46.944;7.412;2023-12-22T02:20:59;7.30;99.90
16974;DHT22;8603;46.944;7.412;2023-12-22T02:23:51;7.20;99.90
16974;DHT22;8603;46.944;7.412;2023-12-22T02:26:40;7.10;99.90
16974;DHT22;8603;46.944;7.412;2023-12-22T02:32:21;7.00;99.90
16974;DHT22;8603;46.944;7.412;2023-12-22T02:34:56;6.90;99.90
16974;DHT22;8603;46.944;7.412;2023-12-22T02:37:28;6.90;99.90
16974;DHT22;8603;46.944;7.412;2023-12-22T02:40:10;6.80;99.90
16974;DHT22;8603;46.944;7.412;2023-12-22T02:42:42;6.80;99.90
16974;DHT22;8603;46.944;7.412;2023-12-22T02:45:24;6.80;99.90
16974;DHT22;8603;46.944;7.412;2023-12-22T02:48:00;6.70;99.90
16974;DHT22;8603;46.944;7.412;2023-12-22T02:50:54;6.80;99.90
16974;DHT22;8603;46.944;7.412;2023-12-22T02:53:22;6.80;99.90
16974;DHT22;8603;46.944;7.412;2023-12-22T02:55:48;6.80;99.90
16974;DHT22;8603;46.944;7.412;2023-12-22T02:58:26;6.80;99.90
16974;DHT22;8603;46.944;7.412;2023-12-22T03:00:58;6.80;99.90
16974;DHT22;8603;46.944;7.412;2023-12-22T03:03:30;6.80;99.90
16974;DHT22;8603;46.944;7.412;2023-12-22T03:06:12;6.90;99.90
16974;DHT22;8603;46.944;7.412;2023-12-22T03:08:41;6.90;99.90
16974;DHT22;8603;46.944;7.412;2023-12-22T03:11:06;6.90;99.90
16974;DHT22;8603;46.944;7.412;2023-12-22T03:13:47;6.90;99.90
16974;DHT22;8603;46.944;7.412;2023-12-22T03:16:18;6.90;99.90
16974;DHT22;8603;46.944;7.412;2023-12-22T03:18:44;6.90;99.90
16974;DHT22;8603;46.944;7.412;2023-12-22T03:21:21;6.90;99.90
16974;DHT22;8603;46.944;7.412;2023-12-22T03:24:02;6.80;99.90
16974;DHT22;8603;46.944;7.412;2023-12-22T03:26:50;6.80;99.90
16974;DHT22;8603;46.944;7.412;2023-12-22T03:29:27;6.80;99.90
16974;DHT22;8603;46.944;7.412;2023-12-22T03:32:24;6.80;99.90
16974;DHT22;8603;46.944;7.412;2023-12-22T03:34:55;6.80;99.90
16974;DHT22;8603;46.944;7.412;2023-12-22T03:37:29;6.80;99.90
16974;DHT22;8603;46.944;7.412;2023-12-22T03:39:57;6.70;99.90
16974;DHT22;8603;46.944;7.412;2023-12-22T03:42:39;6.80;99.90
16974;DHT22;8603;46.944;7.412;2023-12-22T03:45:14;6.80;99.90
16974;DHT22;8603;46.944;7.412;2023-12-22T03:48:14;6.80;99.90
16974;DHT22;8603;46.944;7.412;2023-12-22T03:50:44;6.80;99.90
16974;DHT22;8603;46.944;7.412;2023-12-22T03:53:22;6.80;99.90
16974;DHT22;8603;46.944;7.412;2023-12-22T03:56:01;6.90;99.90
16974;DHT22;8603;46.944;7.412;2023-12-22T03:58:42;6.90;99.90
16974;DHT22;8603;46.944;7.412;2023-12-22T04:04:12;7.00;99.90
16974;DHT22;8603;46.944;7.412;2023-12-22T04:06:43;7.10;99.90
16974;DHT22;8603;46.944;7.412;2023-12-22T04:09:36;7.20;99.90
16974;DHT22;8603;46.944;7.412;2023-12-22T04:12:05;7.20;99.90
16974;DHT22;8603;46.944;7.412;2023-12-22T04:15:08;7.10;99.90
16974;DHT22;8603;46.944;7.412;2023-12-22T04:17:39;7.10;99.90
16974;DHT22;8603;46.944;7.412;2023-12-22T04:20:28;7.00;99.90
16974;DHT22;8603;46.944;7.412;2023-12-22T04:23:20;7.00;99.90
16974;DHT22;8603;46.944;7.412;2023-12-22T04:25:51;7.00;99.90
16974;DHT22;8603;46.944;7.412;2023-12-22T04:28:40;7.00;99.90
16974;DHT22;8603;46.944;7.412;2023-12-22T04:31:11;6.90;99.90
16974;DHT22;8603;46.944;7.412;2023-12-22T04:33:51;6.80;99.90
16974;DHT22;8603;46.944;7.412;2023-12-22T04:36:36;6.90;99.90
16974;DHT22;8603;46.944;7.412;2023-12-22T04:39:31;6.90;99.90
16974;DHT22;8603;46.944;7.412;2023-12-22T04:41:59;6.80;99.90
16974;DHT22;8603;46.944;7.412;2023-12-22T04:44:27;6.80;99.90
16974;DHT22;8603;46.944;7.412;2023-12-22T04:46:59;6.70;99.90
16974;DHT22;8603;46.944;7.412;2023-12-22T04:49:30;6.70;99.90
16974;DHT22;8603;46.944;7.412;2023-12-22T04:54:50;6.70;99.90
16974;DHT22;8603;46.944;7.412;2023-12-22T04:57:37;6.70;99.90
16974;DHT22;8603;46.944;7.412;2023-12-22T05:00:09;6.70;99.90
16974;DHT22;8603;46.944;7.412;2023-12-22T05:02:41;6.70;99.90
16974;DHT22;8603;46.944;7.412;2023-12-22T05:05:17;6.60;99.90
16974;DHT22;8603;46.944;7.412;2023-12-22T05:07:46;6.50;99.90
16974;DHT22;8603;46.944;7.412;2023-12-22T05:10:12;6.60;99.90
16974;DHT22;8603;46.944;7.412;2023-12-22T05:12:42;6.50;99.90
16974;DHT22;8603;46.944;7.412;2023-12-22T05:15:21;6.50;99.90
16974;DHT22;8603;46.944;7.412;2023-12-22T05:17:47;6.50;99.90
16974;DHT22;8603;46.944;7.412;2023-12-22T05:20:45;6.40;99.90
16974;DHT22;8603;46.944;7.412;2023-12-22T05:23:40;6.40;99.90
16974;DHT22;8603;46.944;7.412;2023-12-22T05:26:25;6.30;99.90
16974;DHT22;8603;46.944;7.412;2023-12-22T05:29:11;6.30;99.90
16974;DHT22;8603;46.944;7.412;2023-12-22T05:31:56;6.30;99.90
16974;DHT22;8603;46.944;7.412;2023-12-22T05:34:23;6.30;99.90
16974;DHT22;8603;46.944;7.412;2023-12-22T05:36:51;6.20;99.90
16974;DHT22;8603;46.944;7.412;2023-12-22T05:39:20;6.20;99.90
16974;DHT22;8603;46.944;7.412;2023-12-22T05:41:46;6.20;99.90
16974;DHT22;8603;46.944;7.412;2023-12-22T05:44:11;6.20;99.90
16974;DHT22;8603;46.944;7.412;2023-12-22T05:46:38;6.10;99.90
16974;DHT22;8603;46.944;7.412;2023-12-22T05:49:12;6.20;99.90
16974;DHT22;8603;46.944;7.412;2023-12-22T05:51:38;6.20;99.90
16974;DHT22;8603;46.944;7.412;2023-12-22T05:54:19;6.20;99.90
16974;DHT22;8603;46.944;7.412;2023-12-22T05:57:14;6.20;99.90
16974;DHT22;8603;46.944;7.412;2023-12-22T05:59:40;6.20;99.90
16974;DHT22;8603;46.944;7.412;2023-12-22T06:02:05;6.20;99.90
16974;DHT22;8603;46.944;7.412;2023-12-22T06:04:31;6.10;99.90
16974;DHT22;8603;46.944;7.412;2023-12-22T06:07:04;6.20;99.90
16974;DHT22;8603;46.944;7.412;2023-12-22T06:09:30;6.20;99.90
16974;DHT22;8603;46.944;7.412;2023-12-22T06:11:56;6.30;99.90
16974;DHT22;8603;46.944;7.412;2023-12-22T06:14:21;6.20;99.90
16974;DHT22;8603;46.944;7.412;2023-12-22T06:17:16;6.20;99.90
16974;DHT22;8603;46.944;7.412;2023-12-22T06:19:59;6.20;99.90
16974;DHT22;8603;46.944;7.412;2023-12-22T06:22:33;6.20;99.90
16974;DHT22;8603;46.944;7.412;2023-12-22T06:24:59;6.20;99.90
16974;DHT22;8603;46.944;7.412;2023-12-22T06:27:25;6.10;99.90
16974;DHT22;8603;46.944;7.412;2023-12-22T06:29:56;6.10;99.90
16974;DHT22;8603;46.944;7.412;2023-12-22T06:32:22;6.10;99.90
16974;DHT22;8603;46.944;7.412;2023-12-22T06:37:52;6.10;99.90
16974;DHT22;8603;46.944;7.412;2023-12-22T06:40:29;6.10;99.90
16974;DHT22;8603;46.944;7.412;2023-12-22T06:42:57;6.10;99.90
16974;DHT22;8603;46.944;7.412;2023-12-22T06:46:02;6.10;99.90
16974;DHT22;8603;46.944;7.412;2023-12-22T06:52:19;6.20;99.90
16974;DHT22;8603;46.944;7.412;2023-12-22T06:55:01;6.30;99.90
16974;DHT22;8603;46.944;7.412;2023-12-22T06:58:05;6.30;99.90
16974;DHT22;8603;46.944;7.412;2023-12-22T07:00:56;6.40;99.90
16974;DHT22;8603;46.944;7.412;2023-12-22T07:03:22;6.40;99.90
16974;DHT22;8603;46.944;7.412;2023-12-22T07:05:48;6.40;99.90
16974;DHT22;8603;46.944;7.412;2023-12-22T07:08:37;6.40;99.90
16974;DHT22;8603;46.944;7.412;2023-12-22T07:11:03;6.50;99.90
16974;DHT22;8603;46.944;7.412;2023-12-22T07:13:28;6.40;99.90
16974;DHT22;8603;46.944;7.412;2023-12-22T07:15:54;6.50;99.90
16974;DHT22;8603;46.944;7.412;2023-12-22T07:18:20;6.50;99.90
16974;DHT22;8603;46.944;7.412;2023-12-22T07:20:46;6.50;99.90
16974;DHT22;8603;46.944;7.412;2023-12-22T07:23:11;6.50;99.90
16974;DHT22;8603;46.944;7.412;2023-12-22T07:25:40;6.50;99.90
16974;DHT22;8603;46.944;7.412;2023-12-22T07:28:30;6.50;99.90
16974;DHT22;8603;46.944;7.412;2023-12-22T07:33:55;6.60;99.90
16974;DHT22;8603;46.944;7.412;2023-12-22T07:36:24;6.60;99.90
16974;DHT22;8603;46.944;7.412;2023-12-22T07:39:34;6.60;99.90
16974;DHT22;8603;46.944;7.412;2023-12-22T07:42:13;6.60;99.90
16974;DHT22;8603;46.944;7.412;2023-12-22T07:44:59;6.70;99.90
16974;DHT22;8603;46.944;7.412;2023-12-22T07:47:32;6.70;99.90
16974;DHT22;8603;46.944;7.412;2023-12-22T07:49:57;6.70;99.90
16974;DHT22;8603;46.944;7.412;2023-12-22T07:52:26;6.70;99.90
16974;DHT22;8603;46.944;7.412;2023-12-22T07:55:18;6.70;99.90
16974;DHT22;8603;46.944;7.412;2023-12-22T07:57:46;6.60;99.90
16974;DHT22;8603;46.944;7.412;2023-12-22T08:00:19;6.60;99.90
16974;DHT22;8603;46.944;7.412;2023-12-22T08:02:45;6.60;99.90
16974;DHT22;8603;46.944;7.412;2023-12-22T08:05:14;6.60;99.90
16974;DHT22;8603;46.944;7.412;2023-12-22T08:07:40;6.70;99.90
16974;DHT22;8603;46.944;7.412;2023-12-22T08:10:06;6.60;99.90
16974;DHT22;8603;46.944;7.412;2023-12-22T08:12:31;6.60;99.90
16974;DHT22;8603;46.944;7.412;2023-12-22T08:14:58;6.70;99.90
16974;DHT22;8603;46.944;7.412;2023-12-22T08:17:27;6.70;99.90
16974;DHT22;8603;46.944;7.412;2023-12-22T08:19:53;6.70;99.90
16974;DHT22;8603;46.944;7.412;2023-12-22T08:22:21;6.70;99.90
16974;DHT22;8603;46.944;7.412;2023-12-22T08:24:57;6.70;99.90
16974;DHT22;8603;46.944;7.412;2023-12-22T08:27:30;6.70;99.90
16974;DHT22;8603;46.944;7.412;2023-12-22T08:29:55;6.70;99.90
16974;DHT22;8603;46.944;7.412;2023-12-22T08:32:23;6.70;99.90
16974;DHT22;8603;46.944;7.412;2023-12-22T08:34:49;6.70;99.90
16974;DHT22;8603;46.944;7.412;2023-12-22T08:37:15;6.80;99.90
16974;DHT22;8603;46.944;7.412;2023-12-22T08:39:47;6.90;99.90
16974;DHT22;8603;46.944;7.412;2023-12-22T08:42:17;6.90;99.90
16974;DHT22;8603;46.944;7.412;2023-12-22T08:44:50;6.90;99.90
16974;DHT22;8603;46.944;7.412;2023-12-22T08:47:15;7.00;99.90
16974;DHT22;8603;46.944;7.412;2023-12-22T08:49:51;6.90;99.90
16974;DHT22;8603;46.944;7.412;2023-12-22T08:52:32;6.90;99.90
16974;DHT22;8603;46.944;7.412;2023-12-22T08:55:34;7.00;99.90
16974;DHT22;8603;46.944;7.412;2023-12-22T08:58:06;6.90;99.90
16974;DHT22;8603;46.944;7.412;2023-12-22T09:00:46;6.90;99.90
16974;DHT22;8603;46.944;7.412;2023-12-22T09:03:26;6.90;99.90
16974;DHT22;8603;46.944;7.412;2023-12-22T09:05:53;6.90;99.90
16974;DHT22;8603;46.944;7.412;2023-12-22T09:08:27;6.80;99.90
16974;DHT22;8603;46.944;7.412;2023-12-22T09:10:53;6.90;99.90
16974;DHT22;8603;46.944;7.412;2023-12-22T09:13:22;6.90;99.90
16974;DHT22;8603;46.944;7.412;2023-12-22T09:16:13;6.90;99.90
16974;DHT22;8603;46.944;7.412;2023-12-22T09:18:56;6.90;99.90
16974;DHT22;8603;46.944;7.412;2023-12-22T09:21:22;6.90;99.90
16974;DHT22;8603;46.944;7.412;2023-12-22T09:23:56;6.90;99.90
16974;DHT22;8603;46.944;7.412;2023-12-22T09:26:25;7.00;99.90
16974;DHT22;8603;46.944;7.412;2023-12-22T09:28:51;6.90;99.90
16974;DHT22;8603;46.944;7.412;2023-12-22T09:31:18;7.00;99.90
16974;DHT22;8603;46.944;7.412;2023-12-22T09:37:09;7.10;99.90
16974;DHT22;8603;46.944;7.412;2023-12-22T09:40:16;7.10;99.90
16974;DHT22;8603;46.944;7.412;2023-12-22T09:43:01;7.10;99.90
16974;DHT22;8603;46.944;7.412;2023-12-22T09:45:42;7.10;99.90
16974;DHT22;8603;46.944;7.412;2023-12-22T09:48:35;7.10;99.90
16974;DHT22;8603;46.944;7.412;2023-12-22T09:54:49;7.20;99.90
16974;DHT22;8603;46.944;7.412;2023-12-22T09:57:16;7.20;99.90
16974;DHT22;8603;46.944;7.412;2023-12-22T09:59:42;7.30;99.90
16974;DHT22;8603;46.944;7.412;2023-12-22T10:05:30;7.20;99.90
16974;DHT22;8603;46.944;7.412;2023-12-22T10:07:56;7.10;99.90
16974;DHT22;8603;46.944;7.412;2023-12-22T10:13:21;7.10;99.90
16974;DHT22;8603;46.944;7.412;2023-12-22T10:15:58;7.00;99.90
16974;DHT22;8603;46.944;7.412;2023-12-22T10:18:25;7.00;99.90
16974;DHT22;8603;46.944;7.412;2023-12-22T10:20:54;7.00;99.90
16974;DHT22;8603;46.944;7.412;2023-12-22T10:23:19;7.00;99.90
16974;DHT22;8603;46.944;7.412;2023-12-22T10:25:45;7.10;99.90
16974;DHT22;8603;46.944;7.412;2023-12-22T10:28:19;7.00;99.90
16974;DHT22;8603;46.944;7.412;2023-12-22T10:30:50;7.10;99.90
16974;DHT22;8603;46.944;7.412;2023-12-22T10:33:15;7.10;99.90
16974;DHT22;8603;46.944;7.412;2023-12-22T10:35:43;7.20;99.90
16974;DHT22;8603;46.944;7.412;2023-12-22T10:38:52;7.20;99.90
16974;DHT22;8603;46.944;7.412;2023-12-22T10:41:29;7.30;99.90
16974;DHT22;8603;46.944;7.412;2023-12-22T10:44:09;7.40;99.90
16974;DHT22;8603;46.944;7.412;2023-12-22T10:46:40;7.40;99.90
16974;DHT22;8603;46.944;7.412;2023-12-22T10:49:17;7.50;99.90
16974;DHT22;8603;46.944;7.412;2023-12-22T10:51:51;7.60;99.90
16974;DHT22;8603;46.944;7.412;2023-12-22T10:54:20;7.70;99.90
16974;DHT22;8603;46.944;7.412;2023-12-22T10:56:58;7.80;99.90
16974;DHT22;8603;46.944;7.412;2023-12-22T10:59:36;7.80;99.90
16974;DHT22;8603;46.944;7.412;2023-12-22T11:02:08;7.80;99.90
16974;DHT22;8603;46.944;7.412;2023-12-22T11:04:37;7.80;99.90
16974;DHT22;8603;46.944;7.412;2023-12-22T11:07:04;7.80;99.90
16974;DHT22;8603;46.944;7.412;2023-12-22T11:09:32;7.80;99.90
16974;DHT22;8603;46.944;7.412;2023-12-22T11:12:03;7.80;99.90
16974;DHT22;8603;46.944;7.412;2023-12-22T11:14:40;7.80;99.90
16974;DHT22;8603;46.944;7.412;2023-12-22T11:17:21;7.90;99.90
16974;DHT22;8603;46.944;7.412;2023-12-22T11:19:54;8.00;99.90
16974;DHT22;8603;46.944;7.412;2023-12-22T11:22:22;8.00;99.90
16974;DHT22;8603;46.944;7.412;2023-12-22T11:24:51;7.90;99.90
16974;DHT22;8603;46.944;7.412;2023-12-22T11:27:26;8.00;99.90
16974;DHT22;8603;46.944;7.412;2023-12-22T11:30:17;8.00;99.90
16974;DHT22;8603;46.944;7.412;2023-12-22T11:32:49;8.10;99.90
16974;DHT22;8603;46.944;7.412;2023-12-22T11:35:16;8.10;99.90
16974;DHT22;8603;46.944;7.412;2023-12-22T11:37:43;8.00;99.90
16974;DHT22;8603;46.944;7.412;2023-12-22T11:40:18;7.90;99.90
16974;DHT22;8603;46.944;7.412;2023-12-22T11:43:00;7.90;99.90
16974;DHT22;8603;46.944;7.412;2023-12-22T11:45:40;7.90;99.90
16974;DHT22;8603;46.944;7.412;2023-12-22T11:48:10;7.90;99.90
16974;DHT22;8603;46.944;7.412;2023-12-22T11:51:13;8.00;99.90
16974;DHT22;8603;46.944;7.412;2023-12-22T11:53:51;8.00;99.90
16974;DHT22;8603;46.944;7.412;2023-12-22T11:56:20;8.10;99.90
16974;DHT22;8603;46.944;7.412;2023-12-22T11:58:49;8.10;99.90
16974;DHT22;8603;46.944;7.412;2023-12-22T12:01:44;8.20;99.90
16974;DHT22;8603;46.944;7.412;2023-12-22T12:04:25;8.30;99.90
16974;DHT22;8603;46.944;7.412;2023-12-22T12:06:51;8.30;99.90
16974;DHT22;8603;46.944;7.412;2023-12-22T12:09:53;8.30;99.90
16974;DHT22;8603;46.944;7.412;2023-12-22T12:12:25;8.30;99.90
16974;DHT22;8603;46.944;7.412;2023-12-22T12:15:16;8.40;99.90
16974;DHT22;8603;46.944;7.412;2023-12-22T12:17:45;8.40;99.90
16974;DHT22;8603;46.944;7.412;2023-12-22T12:20:24;8.40;99.90
16974;DHT22;8603;46.944;7.412;2023-12-22T12:23:01;8.40;99.90
16974;DHT22;8603;46.944;7.412;2023-12-22T12:25:33;8.50;99.90
16974;DHT22;8603;46.944;7.412;2023-12-22T12:28:06;8.50;99.90
16974;DHT22;8603;46.944;7.412;2023-12-22T12:30:32;8.40;99.90
16974;DHT22;8603;46.944;7.412;2023-12-22T12:33:10;8.40;99.90
16974;DHT22;8603;46.944;7.412;2023-12-22T12:35:38;8.30;99.90
16974;DHT22;8603;46.944;7.412;2023-12-22T12:47:16;8.10;99.90
16974;DHT22;8603;46.944;7.412;2023-12-22T12:49:45;8.10;99.90
16974;DHT22;8603;46.944;7.412;2023-12-22T12:52:22;8.00;99.90
16974;DHT22;8603;46.944;7.412;2023-12-22T12:54:48;8.00;99.90
16974;DHT22;8603;46.944;7.412;2023-12-22T12:57:35;7.90;99.90
16974;DHT22;8603;46.944;7.412;2023-12-22T13:00:01;7.90;99.90
16974;DHT22;8603;46.944;7.412;2023-12-22T13:02:28;7.90;99.90
16974;DHT22;8603;46.944;7.412;2023-12-22T13:05:50;7.80;99.90
16974;DHT22;8603;46.944;7.412;2023-12-22T13:08:27;7.90;99.90
16974;DHT22;8603;46.944;7.412;2023-12-22T13:14:07;8.00;99.90
16974;DHT22;8603;46.944;7.412;2023-12-22T13:17:06;8.10;99.90
16974;DHT22;8603;46.944;7.412;2023-12-22T13:19:34;8.30;99.90
16974;DHT22;8603;46.944;7.412;2023-12-22T13:22:00;8.20;99.90
16974;DHT22;8603;46.944;7.412;2023-12-22T13:24:29;8.20;99.90
16974;DHT22;8603;46.944;7.412;2023-12-22T13:27:04;8.20;99.90
16974;DHT22;8603;46.944;7.412;2023-12-22T13:29:44;8.20;99.90
16974;DHT22;8603;46.944;7.412;2023-12-22T13:32:21;8.10;99.90
16974;DHT22;8603;46.944;7.412;2023-12-22T13:34:54;8.10;99.90
16974;DHT22;8603;46.944;7.412;2023-12-22T13:37:34;8.00;99.90
16974;DHT22;8603;46.944;7.412;2023-12-22T13:40:07;7.90;99.90
16974;DHT22;8603;46.944;7.412;2023-12-22T13:42:36;7.90;99.90
16974;DHT22;8603;46.944;7.412;2023-12-22T13:45:04;7.90;99.90
16974;DHT22;8603;46.944;7.412;2023-12-22T13:47:53;7.90;99.90
16974;DHT22;8603;46.944;7.412;2023-12-22T13:53:39;7.90;99.90
16974;DHT22;8603;46.944;7.412;2023-12-22T13:56:36;8.00;99.90
16974;DHT22;8603;46.944;7.412;2023-12-22T13:59:33;8.00;99.90
16974;DHT22;8603;46.944;7.412;2023-12-22T14:02:07;8.10;99.90
16974;DHT22;8603;46.944;7.412;2023-12-22T14:04:56;8.20;99.90
16974;DHT22;8603;46.944;7.412;2023-12-22T14:07:24;8.20;99.90
16974;DHT22;8603;46.944;7.412;2023-12-22T14:10:11;8.10;99.90
16974;DHT22;8603;46.944;7.412;2023-12-22T14:12:43;8.10;99.90
16974;DHT22;8603;46.944;7.412;2023-12-22T14:15:15;8.10;99.90
16974;DHT22;8603;46.944;7.412;2023-12-22T14:18:00;8.10;99.90
16974;DHT22;8603;46.944;7.412;2023-12-22T14:20:50;8.20;99.90
16974;DHT22;8603;46.944;7.412;2023-12-22T14:23:25;8.10;99.90
16974;DHT22;8603;46.944;7.412;2023-12-22T14:26:26;8.10;99.90
16974;DHT22;8603;46.944;7.412;2023-12-22T14:28:52;8.10;99.90
16974;DHT22;8603;46.944;7.412;2023-12-22T14:31:26;8.10;99.90
16974;DHT22;8603;46.944;7.412;2023-12-22T14:34:01;8.00;99.90
16974;DHT22;8603;46.944;7.412;2023-12-22T14:39:33;8.00;99.90
16974;DHT22;8603;46.944;7.412;2023-12-22T14:42:01;8.00;99.90
16974;DHT22;8603;46.944;7.412;2023-12-22T14:44:28;7.90;99.90
16974;DHT22;8603;46.944;7.412;2023-12-22T14:46:54;8.00;99.90
16974;DHT22;8603;46.944;7.412;2023-12-22T14:49:35;7.90;99.90
16974;DHT22;8603;46.944;7.412;2023-12-22T14:52:01;8.00;99.90
16974;DHT22;8603;46.944;7.412;2023-12-22T14:54:59;7.90;99.90
16974;DHT22;8603;46.944;7.412;2023-12-22T14:57:48;7.90;99.90
16974;DHT22;8603;46.944;7.412;2023-12-22T15:00:25;7.90;99.90
16974;DHT22;8603;46.944;7.412;2023-12-22T15:02:53;7.90;99.90
16974;DHT22;8603;46.944;7.412;2023-12-22T15:05:30;7.80;99.90
16974;DHT22;8603;46.944;7.412;2023-12-22T15:08:04;7.90;99.90
16974;DHT22;8603;46.944;7.412;2023-12-22T15:10:52;7.80;99.90
16974;DHT22;8603;46.944;7.412;2023-12-22T15:13:27;7.80;99.90
16974;DHT22;8603;46.944;7.412;2023-12-22T15:16:14;7.80;99.90
16974;DHT22;8603;46.944;7.412;2023-12-22T15:18:45;7.80;99.90
16974;DHT22;8603;46.944;7.412;2023-12-22T15:21:26;7.70;99.90
16974;DHT22;8603;46.944;7.412;2023-12-22T15:23:52;7.70;99.90
16974;DHT22;8603;46.944;7.412;2023-12-22T15:26:41;7.80;99.90
16974;DHT22;8603;46.944;7.412;2023-12-22T15:29:36;7.70;99.90
16974;DHT22;8603;46.944;7.412;2023-12-22T15:32:31;7.70;99.90
16974;DHT22;8603;46.944;7.412;2023-12-22T15:35:35;7.70;99.90
16974;DHT22;8603;46.944;7.412;2023-12-22T15:38:07;7.70;99.90
16974;DHT22;8603;46.944;7.412;2023-12-22T15:40:54;7.80;99.90
16974;DHT22;8603;46.944;7.412;2023-12-22T15:43:44;7.80;99.90
16974;DHT22;8603;46.944;7.412;2023-12-22T15:46:19;7.80;99.90
16974;DHT22;8603;46.944;7.412;2023-12-22T15:48:49;7.80;99.90
16974;DHT22;8603;46.944;7.412;2023-12-22T15:51:23;7.80;99.90
16974;DHT22;8603;46.944;7.412;2023-12-22T15:54:13;7.80;99.90
16974;DHT22;8603;46.944;7.412;2023-12-22T15:56:56;7.90;99.90
16974;DHT22;8603;46.944;7.412;2023-12-22T15:59:36;7.90;99.90
16974;DHT22;8603;46.944;7.412;2023-12-22T16:02:05;7.90;99.90
16974;DHT22;8603;46.944;7.412;2023-12-22T16:04:51;7.90;99.90
16974;DHT22;8603;46.944;7.412;2023-12-22T16:07:20;7.90;99.90
16974;DHT22;8603;46.944;7.412;2023-12-22T16:09:52;7.90;99.90
16974;DHT22;8603;46.944;7.412;2023-12-22T16:13:40;7.90;99.90
16974;DHT22;8603;46.944;7.412;2023-12-22T16:16:32;7.90;99.90
16974;DHT22;8603;46.944;7.412;2023-12-22T16:19:07;7.90;99.90
16974;DHT22;8603;46.944;7.412;2023-12-22T16:22:23;7.80;99.90
16974;DHT22;8603;46.944;7.412;2023-12-22T16:25:27;7.90;99.90
16974;DHT22;8603;46.944;7.412;2023-12-22T16:28:27;7.70;99.90
16974;DHT22;8603;46.944;7.412;2023-12-22T16:31:00;7.70;99.90
16974;DHT22;8603;46.944;7.412;2023-12-22T16:33:40;7.60;99.90
16974;DHT22;8603;46.944;7.412;2023-12-22T16:36:50;7.70;99.90
16974;DHT22;8603;46.944;7.412;2023-12-22T16:39:23;7.60;99.90
16974;DHT22;8603;46.944;7.412;2023-12-22T16:41:58;7.60;99.90
16974;DHT22;8603;46.944;7.412;2023-12-22T16:44:26;7.60;99.90
16974;DHT22;8603;46.944;7.412;2023-12-22T16:47:19;7.60;99.90
16974;DHT22;8603;46.944;7.412;2023-12-22T16:49:45;7.60;99.90
16974;DHT22;8603;46.944;7.412;2023-12-22T16:52:31;7.50;99.90
16974;DHT22;8603;46.944;7.412;2023-12-22T16:55:11;7.60;99.90
16974;DHT22;8603;46.944;7.412;2023-12-22T16:57:48;7.60;99.90
16974;DHT22;8603;46.944;7.412;2023-12-22T17:03:37;7.50;99.90
16974;DHT22;8603;46.944;7.412;2023-12-22T17:06:04;7.50;99.90
16974;DHT22;8603;46.944;7.412;2023-12-22T17:09:45;7.50;99.90
16974;DHT22;8603;46.944;7.412;2023-12-22T17:12:01;7.50;99.90
16974;DHT22;8603;46.944;7.412;2023-12-22T17:14:27;7.50;99.90
16974;DHT22;8603;46.944;7.412;2023-12-22T17:16:53;7.50;99.90
16974;DHT22;8603;46.944;7.412;2023-12-22T17:19:19;7.60;99.90
16974;DHT22;8603;46.944;7.412;2023-12-22T17:21:48;7.60;99.90
16974;DHT22;8603;46.944;7.412;2023-12-22T17:24:13;7.60;99.90
16974;DHT22;8603;46.944;7.412;2023-12-22T17:26:58;7.60;99.90
16974;DHT22;8603;46.944;7.412;2023-12-22T17:29:24;7.60;99.90
16974;DHT22;8603;46.944;7.412;2023-12-22T17:32:02;7.50;99.90
16974;DHT22;8603;46.944;7.412;2023-12-22T17:35:00;7.50;99.90
16974;DHT22;8603;46.944;7.412;2023-12-22T17:37:35;7.50;99.90
16974;DHT22;8603;46.944;7.412;2023-12-22T17:40:27;7.60;99.90
16974;DHT22;8603;46.944;7.412;2023-12-22T17:43:13;7.50;99.90
16974;DHT22;8603;46.944;7.412;2023-12-22T17:45:42;7.60;99.90
16974;DHT22;8603;46.944;7.412;2023-12-22T17:48:08;7.60;99.90
16974;DHT22;8603;46.944;7.412;2023-12-22T17:54:10;7.60;99.90
16974;DHT22;8603;46.944;7.412;2023-12-22T17:56:54;7.60;99.90
16974;DHT22;8603;46.944;7.412;2023-12-22T17:59:24;7.70;99.90
16974;DHT22;8603;46.944;7.412;2023-12-22T18:02:21;7.70;99.90
16974;DHT22;8603;46.944;7.412;2023-12-22T18:05:03;7.70;99.90
16974;DHT22;8603;46.944;7.412;2023-12-22T18:07:42;7.70;99.90
16974;DHT22;8603;46.944;7.412;2023-12-22T18:10:20;7.60;99.90
16974;DHT22;8603;46.944;7.412;2023-12-22T18:13:05;7.60;99.90
16974;DHT22;8603;46.944;7.412;2023-12-22T18:19:25;7.50;99.90
16974;DHT22;8603;46.944;7.412;2023-12-22T18:22:01;7.60;99.90
16974;DHT22;8603;46.944;7.412;2023-12-22T18:24:54;7.60;99.90
16974;DHT22;8603;46.944;7.412;2023-12-22T18:27:41;7.50;99.90
16974;DHT22;8603;46.944;7.412;2023-12-22T18:33:13;7.50;99.90
16974;DHT22;8603;46.944;7.412;2023-12-22T18:36:09;7.50;99.90
16974;DHT22;8603;46.944;7.412;2023-12-22T18:38:37;7.50;99.90
16974;DHT22;8603;46.944;7.412;2023-12-22T18:44:13;7.40;99.90
16974;DHT22;8603;46.944;7.412;2023-12-22T18:46:39;7.40;99.90
16974;DHT22;8603;46.944;7.412;2023-12-22T18:49:14;7.40;99.90
16974;DHT22;8603;46.944;7.412;2023-12-22T18:51:50;7.40;99.90
16974;DHT22;8603;46.944;7.412;2023-12-22T18:54:38;7.30;99.90
16974;DHT22;8603;46.944;7.412;2023-12-22T18:57:07;7.30;99.90
16974;DHT22;8603;46.944;7.412;2023-12-22T18:59:35;7.20;99.90
16974;DHT22;8603;46.944;7.412;2023-12-22T19:02:01;7.30;99.90
16974;DHT22;8603;46.944;7.412;2023-12-22T19:04:30;7.30;99.90